Boght Corners, New York
Current Conditions -  °F | °C
As of 10:51 AM on Saturday 20 Dec 2014 (Local Time) from KALB Reporting Station
Broken Clouds Broken Clouds  
Wind Chill: -6°   Ceiling: 3500
Heat Index: -3°   Visibility: 10mi
Dew Point: -8°   Wind: 5mph
Humidity: 71%   Direction: 300°WNW
Pressure: 30.32"   Gusts: NA
Location:  42.7824°N, 73.7303°W
Report Text: KALB 201551Z 30004KT 10SM FEW018 BKN035 M03/M08 A3032 RMK AO2 SLP273 BKN V OVC T10331078
Loading
Personal Weather Stations






























Interactive Weather Map New forecast layout! Learn more

10-Day Weather Forecast

Advertisements
Track Severe Weather on mobile